Time;durP1;ratioP1;P1;durP2;ratioP2;P2;SDS_P1;SDS_P2;PMS_P1;PMS_P2;Temp;Humidity;BMP_temperature;BMP_pressure;BME280_temperature;BME280_humidity;BME280_pressure;Samples;Min_cycle;Max_cycle;Signal;HPM_P1;HPM_P2
2023/06/27 00:01:39;;;;;;;7.30;2.93;;;;;;;16.61;79.15;100934.78;4920298;29;20411;-70
2023/06/27 00:04:09;;;;;;;5.20;2.77;;;;;;;16.61;79.11;100926.59;4925710;29;20894;-69
2023/06/27 00:06:41;;;;;;;7.40;3.00;;;;;;;16.62;78.94;100941.91;4927444;29;20435;-69
2023/06/27 00:09:10;;;;;;;5.33;2.83;;;;;;;16.68;78.50;100930.03;4921684;29;20420;-70
2023/06/27 00:11:40;;;;;;;3.27;2.97;;;;;;;16.68;78.48;100930.03;4926127;29;20499;-69
2023/06/27 00:14:09;;;;;;;4.63;2.60;;;;;;;16.68;78.98;100940.97;4916972;29;20435;-71
2023/06/27 00:16:40;;;;;;;6.63;2.70;;;;;;;16.65;78.49;100937.88;4966745;23;20460;-67
2023/06/27 00:19:10;;;;;;;5.00;3.30;;;;;;;16.57;78.88;100941.78;4922720;29;20419;-68
2023/06/27 00:21:39;;;;;;;6.87;3.37;;;;;;;16.56;78.76;100944.72;4920520;29;20469;-69
2023/06/27 00:24:09;;;;;;;8.53;3.10;;;;;;;16.53;79.03;100943.31;4917492;29;20733;-70
2023/06/27 00:26:38;;;;;;;6.37;3.00;;;;;;;16.40;79.87;100954.50;4925197;29;20960;-70
2023/06/27 00:29:08;;;;;;;4.50;2.87;;;;;;;16.37;80.31;100954.97;4923178;29;20404;-69
2023/06/27 00:31:38;;;;;;;4.87;2.90;;;;;;;16.38;80.75;100962.09;4919161;29;20476;-69
2023/06/27 00:34:10;;;;;;;7.23;3.20;;;;;;;16.39;81.33;100963.78;4919986;29;20503;-70
2023/06/27 00:36:41;;;;;;;3.53;2.80;;;;;;;16.36;81.12;100964.25;4918739;29;20812;-69
2023/06/27 00:39:11;;;;;;;4.73;3.20;;;;;;;16.31;82.17;100967.72;4918020;29;20745;-67
2023/06/27 00:41:40;;;;;;;3.97;3.23;;;;;;;16.19;83.09;100968.75;4925538;29;20443;-68
2023/06/27 00:44:10;;;;;;;7.83;4.03;;;;;;;16.13;83.65;100969.69;4915902;29;20813;-68
2023/06/27 00:46:42;;;;;;;6.60;3.20;;;;;;;16.14;83.25;100963.19;4917363;29;20431;-68
2023/06/27 00:49:13;;;;;;;4.33;2.80;;;;;;;16.08;83.92;100967.69;4921475;29;20457;-68
2023/06/27 00:51:42;;;;;;;6.87;3.50;;;;;;;16.06;84.37;100965.22;4921149;29;20428;-69
2023/06/27 00:54:12;;;;;;;4.23;2.93;;;;;;;16.00;85.02;100968.88;4914394;29;20492;-69
2023/06/27 00:56:42;;;;;;;10.90;3.57;;;;;;;15.92;84.54;100974.69;4923966;29;20429;-70
2023/06/27 00:59:11;;;;;;;8.10;3.07;;;;;;;15.98;84.59;100979.19;4919016;29;20452;-69
2023/06/27 01:01:43;;;;;;;4.50;3.40;;;;;;;15.91;85.23;100975.75;4915972;29;20433;-70
2023/06/27 01:04:12;;;;;;;8.10;3.80;;;;;;;15.89;85.43;100975.13;4919534;29;20433;-69
2023/06/27 01:06:52;;;;;;;8.70;4.00;;;;;;;15.86;85.61;100981.06;4918316;29;20460;-69
2023/06/27 01:09:27;;;;;;;7.87;3.10;;;;;;;15.85;85.91;100979.41;4916534;29;20427;-69
2023/06/27 01:12:10;;;;;;;7.80;3.33;;;;;;;15.80;86.39;100982.00;4918156;29;20471;-69
2023/06/27 01:14:43;;;;;;;6.80;3.80;;;;;;;15.82;86.20;100979.06;4914116;29;20467;-68
2023/06/27 01:17:15;;;;;;;12.90;3.70;;;;;;;15.70;86.89;100975.47;4917871;29;20478;-69
2023/06/27 01:19:46;;;;;;;5.13;3.77;;;;;;;15.67;87.29;100978.66;4917378;29;20517;-69
2023/06/27 01:22:19;;;;;;;5.23;3.60;;;;;;;15.64;87.66;100972.59;4917623;29;20405;-67
2023/06/27 01:24:50;;;;;;;6.17;4.73;;;;;;;15.67;87.52;100979.50;4920807;29;20412;-70
2023/06/27 01:27:19;;;;;;;5.83;3.87;;;;;;;15.57;88.85;100971.06;4919061;29;20461;-69
2023/06/27 01:29:48;;;;;;;7.03;4.10;;;;;;;15.53;88.66;100976.16;4918837;29;20429;-69
2023/06/27 01:32:23;;;;;;;5.33;3.13;;;;;;;15.51;89.02;100983.72;4921681;29;20520;-67
2023/06/27 01:35:01;;;;;;;7.30;3.57;;;;;;;15.53;88.88;100978.03;4921571;29;20481;-71
2023/06/27 01:37:35;;;;;;;9.93;3.80;;;;;;;15.51;89.11;100982.88;4917631;29;20423;-71
2023/06/27 01:40:10;;;;;;;6.93;3.93;;;;;;;15.42;89.53;100981.53;4915490;29;20443;-68
2023/06/27 01:42:42;;;;;;;7.53;4.13;;;;;;;15.45;90.05;100978.31;4915937;29;20506;-69
2023/06/27 01:45:12;;;;;;;10.10;5.13;;;;;;;15.38;90.33;100985.78;4919479;29;20742;-69
2023/06/27 01:47:44;;;;;;;12.30;3.80;;;;;;;15.39;90.46;100990.19;4917088;29;20904;-69
2023/06/27 01:50:14;;;;;;;9.27;4.63;;;;;;;15.34;90.80;100982.69;4916778;29;20440;-70
2023/06/27 01:52:43;;;;;;;14.73;4.43;;;;;;;15.32;91.25;100981.25;4914154;29;20429;-70
2023/06/27 01:55:13;;;;;;;6.40;3.87;;;;;;;15.32;91.37;100973.91;4916383;29;20513;-69
2023/06/27 01:57:42;;;;;;;8.87;4.13;;;;;;;15.28;92.10;100977.31;4915156;29;20548;-70
2023/06/27 02:00:12;;;;;;;7.77;4.80;;;;;;;15.23;92.45;100983.47;4911810;29;20442;-69
2023/06/27 02:02:44;;;;;;;7.63;4.20;;;;;;;15.20;92.19;100976.56;4919411;29;20473;-69
2023/06/27 02:05:16;;;;;;;8.97;4.43;;;;;;;15.23;92.55;100980.75;4918849;29;20857;-69
2023/06/27 02:07:45;;;;;;;5.40;4.30;;;;;;;15.09;93.51;100982.81;4919708;29;20443;-70
2023/06/27 02:10:16;;;;;;;7.20;4.70;;;;;;;15.04;93.52;100977.22;4920244;29;20412;-69
2023/06/27 02:12:45;;;;;;;6.70;5.60;;;;;;;15.01;93.72;100977.66;4916510;29;20492;-69
2023/06/27 02:15:14;;;;;;;5.83;3.80;;;;;;;14.98;94.32;100975.41;4916266;29;20467;-70
2023/06/27 02:17:43;;;;;;;7.70;4.60;;;;;;;14.88;94.89;100975.09;4918634;29;20961;-69
2023/06/27 02:20:12;;;;;;;6.33;4.70;;;;;;;14.91;94.96;100971.91;4920115;29;21007;-69
2023/06/27 02:22:41;;;;;;;10.47;4.33;;;;;;;14.96;95.08;100982.97;4920813;29;20429;-69
2023/06/27 02:25:10;;;;;;;10.20;4.50;;;;;;;14.84;95.65;100987.53;4918163;29;20951;-69
2023/06/27 02:27:41;;;;;;;10.93;4.53;;;;;;;14.86;96.28;100988.13;4918237;29;20449;-67
2023/06/27 02:30:13;;;;;;;10.70;5.93;;;;;;;14.82;96.34;100988.78;4914614;29;20981;-70
2023/06/27 02:32:42;;;;;;;5.10;4.23;;;;;;;14.78;97.58;100985.69;4918541;29;20438;-71
2023/06/27 02:35:15;;;;;;;10.57;4.47;;;;;;;14.73;98.13;100982.81;4917709;29;20845;-70
2023/06/27 02:37:44;;;;;;;9.37;5.00;;;;;;;14.73;98.21;100991.00;4919903;29;20427;-71
2023/06/27 02:40:13;;;;;;;16.70;4.77;;;;;;;14.73;98.53;100993.72;4919018;29;20467;-69
2023/06/27 02:42:44;;;;;;;13.13;5.00;;;;;;;14.73;98.75;100986.38;4917410;29;20438;-68
2023/06/27 02:45:13;;;;;;;6.40;5.10;;;;;;;14.75;98.63;100988.88;4918928;29;20481;-70
2023/06/27 02:47:42;;;;;;;15.70;5.50;;;;;;;14.74;98.88;100998.13;4917918;29;20479;-72
2023/06/27 02:50:12;;;;;;;9.87;4.40;;;;;;;14.76;99.01;100993.28;4915358;29;20438;-72
2023/06/27 02:52:41;;;;;;;10.93;4.80;;;;;;;14.70;99.33;100996.91;4923144;29;20497;-70
2023/06/27 02:55:10;;;;;;;7.93;4.80;;;;;;;14.77;99.35;100997.66;4917636;29;20556;-69
2023/06/27 02:57:40;;;;;;;8.17;5.70;;;;;;;14.74;99.63;100992.66;4916045;29;20433;-71
2023/06/27 03:00:13;;;;;;;6.80;5.20;;;;;;;14.71;100.00;100993.13;4913742;29;20442;-68
2023/06/27 03:02:43;;;;;;;7.03;4.57;;;;;;;14.77;100.00;100993.03;4919257;29;20441;-71
2023/06/27 03:05:14;;;;;;;8.10;5.43;;;;;;;14.77;99.84;100987.59;4920304;29;20505;-72
2023/06/27 03:07:43;;;;;;;8.70;5.10;;;;;;;14.83;98.93;100991.31;4922370;29;20454;-69
2023/06/27 03:10:12;;;;;;;9.10;5.23;;;;;;;14.83;98.37;100987.75;4917593;29;20441;-69
2023/06/27 03:12:42;;;;;;;6.70;4.40;;;;;;;14.80;98.73;100986.31;4919376;29;20457;-69
2023/06/27 03:15:13;;;;;;;7.87;5.17;;;;;;;14.88;98.92;100983.28;4918824;29;21003;-69
2023/06/27 03:17:42;;;;;;;6.97;5.10;;;;;;;14.92;98.08;100989.94;4921137;29;20518;-70
2023/06/27 03:20:12;;;;;;;12.40;5.80;;;;;;;14.93;97.60;100986.16;4920376;29;20445;-69
2023/06/27 03:22:41;;;;;;;8.60;4.97;;;;;;;14.95;97.50;100986.78;4923386;29;20889;-68
2023/06/27 03:25:11;;;;;;;8.73;5.10;;;;;;;15.02;96.93;100989.38;4933186;29;20403;-68
2023/06/27 03:27:40;;;;;;;6.10;3.77;;;;;;;14.98;96.04;100993.63;4921936;29;20464;-70
2023/06/27 03:30:13;;;;;;;9.63;5.10;;;;;;;15.07;96.04;100995.81;4921219;29;20448;-70
2023/06/27 03:32:44;;;;;;;6.00;4.50;;;;;;;15.14;95.36;101001.19;4929600;29;20441;-70
2023/06/27 03:35:13;;;;;;;7.40;4.30;;;;;;;15.22;95.23;101004.44;4918499;29;20436;-68
2023/06/27 03:37:42;;;;;;;9.17;4.27;;;;;;;15.27;94.13;101002.91;4924394;29;20427;-68
2023/06/27 03:40:11;;;;;;;12.20;4.60;;;;;;;15.69;91.68;101007.34;4920434;29;20511;-68
2023/06/27 03:42:42;;;;;;;8.43;4.97;;;;;;;16.44;86.43;101005.69;4916385;29;20891;-68
2023/06/27 03:45:13;;;;;;;9.33;4.10;;;;;;;17.23;81.43;101009.59;4918966;29;20407;-69
2023/06/27 03:47:42;;;;;;;9.20;4.13;;;;;;;17.79;78.89;101016.16;4915234;29;20448;-69
2023/06/27 03:50:11;;;;;;;6.77;4.20;;;;;;;18.27;75.51;101012.88;4920748;29;20453;-70
2023/06/27 03:52:40;;;;;;;6.07;3.40;;;;;;;18.54;73.33;101013.84;4921214;29;20511;-69
2023/06/27 03:55:09;;;;;;;9.23;4.30;;;;;;;18.87;71.91;101012.97;4923246;29;20451;-71
2023/06/27 03:57:38;;;;;;;6.90;4.90;;;;;;;19.41;69.08;101008.38;4918176;29;20446;-70
2023/06/27 04:00:10;;;;;;;12.13;5.10;;;;;;;19.03;70.06;101023.03;4922577;29;20440;-68
2023/06/27 04:02:46;;;;;;;6.27;2.87;;;;;;;19.06;69.52;101014.31;4916351;29;20444;-69
2023/06/27 04:05:16;;;;;;;10.03;3.70;;;;;;;18.54;70.62;101013.84;4917064;29;20980;-69
2023/06/27 04:07:45;;;;;;;7.07;3.63;;;;;;;19.27;68.66;101023.59;4917199;29;20568;-69
2023/06/27 04:10:14;;;;;;;7.47;4.57;;;;;;;19.58;67.92;101019.31;4924001;29;20922;-69
2023/06/27 04:12:43;;;;;;;13.43;5.20;;;;;;;19.24;68.03;101021.38;4922300;29;20467;-69
2023/06/27 04:15:12;;;;;;;8.20;4.93;;;;;;;19.76;66.11;101018.13;4921512;29;20439;-70
2023/06/27 04:17:42;;;;;;;13.83;4.93;;;;;;;20.08;64.83;101020.91;4922954;29;20440;-68
2023/06/27 04:20:14;;;;;;;10.20;4.67;;;;;;;19.80;65.16;101022.81;4916716;29;20400;-70
2023/06/27 04:22:43;;;;;;;9.60;3.80;;;;;;;19.76;65.39;101020.88;4918126;29;20524;-70
2023/06/27 04:25:13;;;;;;;8.60;3.57;;;;;;;20.30;64.21;101025.22;4915218;29;20417;-69
2023/06/27 04:27:42;;;;;;;7.40;3.60;;;;;;;20.54;62.43;101014.66;4920290;29;20792;-69
2023/06/27 04:30:12;;;;;;;4.13;3.73;;;;;;;21.44;59.83;101023.66;4924588;29;20440;-70
2023/06/27 04:32:41;;;;;;;6.13;3.50;;;;;;;21.41;59.13;101024.19;4920191;29;20787;-68
2023/06/27 04:35:15;;;;;;;14.63;5.23;;;;;;;21.98;58.05;101024.88;4917851;29;20831;-69
2023/06/27 04:37:46;;;;;;;9.87;4.20;;;;;;;21.96;57.52;101023.50;4917399;29;20457;-69
2023/06/27 04:40:16;;;;;;;7.87;3.90;;;;;;;21.81;57.32;101018.78;4914352;29;20449;-69
2023/06/27 04:42:48;;;;;;;10.07;4.80;;;;;;;21.01;59.62;101028.41;4916908;29;20495;-69
2023/06/27 04:45:17;;;;;;;12.00;4.67;;;;;;;20.36;62.20;101020.59;4917992;29;20400;-69
2023/06/27 04:47:46;;;;;;;8.33;3.73;;;;;;;20.37;61.58;101025.84;4923678;29;20857;-68
2023/06/27 04:50:18;;;;;;;13.03;4.57;;;;;;;20.62;61.65;101018.84;4919736;29;20495;-69
2023/06/27 04:52:50;;;;;;;13.97;4.30;;;;;;;21.08;60.71;101023.50;4919220;29;20412;-70
2023/06/27 04:55:18;;;;;;;7.47;3.27;;;;;;;21.40;57.79;101022.53;4917522;29;21013;-68
2023/06/27 04:57:47;;;;;;;7.80;4.07;;;;;;;20.84;60.46;101025.03;4918506;29;20838;-70
2023/06/27 05:00:17;;;;;;;9.03;4.47;;;;;;;21.17;59.51;101027.41;4919961;29;20396;-67
2023/06/27 05:02:46;;;;;;;8.47;3.17;;;;;;;21.40;58.97;101017.03;4915782;29;21096;-70
2023/06/27 05:05:18;;;;;;;18.97;4.27;;;;;;;20.98;58.79;101012.44;4919117;29;20404;-70
2023/06/27 05:07:48;;;;;;;6.83;3.00;;;;;;;20.79;60.82;101014.00;4928973;29;20460;-71
2023/06/27 05:10:17;;;;;;;10.73;3.53;;;;;;;21.05;59.26;101015.78;4924099;29;20437;-69
2023/06/27 05:12:46;;;;;;;10.57;3.80;;;;;;;21.66;57.47;101022.34;4923598;29;20513;-70
2023/06/27 05:15:15;;;;;;;6.20;3.57;;;;;;;20.82;59.74;101013.44;4926420;29;20435;-70
2023/06/27 05:17:52;;;;;;;10.90;4.13;;;;;;;21.15;59.19;101020.53;4917737;29;20448;-70
2023/06/27 05:20:22;;;;;;;4.27;2.60;;;;;;;20.63;60.48;101015.81;4920417;29;20426;-72
2023/06/27 05:22:53;;;;;;;10.13;3.70;;;;;;;19.33;65.01;101008.84;4918628;29;20465;-70
2023/06/27 05:25:22;;;;;;;6.27;3.70;;;;;;;20.44;61.97;101011.00;4913727;29;20404;-70
2023/06/27 05:27:51;;;;;;;8.77;3.33;;;;;;;22.07;56.94;101016.91;4922015;29;20453;-71
2023/06/27 05:30:20;;;;;;;6.03;3.50;;;;;;;22.20;56.81;101023.78;4917548;29;20404;-69
2023/06/27 05:32:49;;;;;;;9.10;3.93;;;;;;;20.81;60.27;101014.56;4916298;29;20412;-70
2023/06/27 05:35:18;;;;;;;5.90;3.13;;;;;;;21.72;57.95;101020.41;4918715;29;20403;-68
2023/06/27 05:37:47;;;;;;;5.83;2.57;;;;;;;22.02;56.90;101012.22;4914695;29;20428;-69
2023/06/27 05:40:18;;;;;;;8.70;3.57;;;;;;;21.00;59.54;101010.25;4917593;29;20442;-69
2023/06/27 05:42:47;;;;;;;9.13;3.50;;;;;;;19.46;64.80;101019.44;4915503;29;20430;-71
2023/06/27 05:45:16;;;;;;;9.50;3.07;;;;;;;18.40;69.90;101015.25;4918735;29;20511;-71
2023/06/27 05:47:47;;;;;;;10.30;3.43;;;;;;;17.92;72.17;101015.00;4923417;29;21039;-70
2023/06/27 05:50:16;;;;;;;10.30;3.90;;;;;;;18.14;72.58;101021.44;4917909;29;20480;-71
2023/06/27 05:52:45;;;;;;;12.47;3.93;;;;;;;17.87;72.96;101020.41;4916440;29;20438;-69
2023/06/27 05:55:17;;;;;;;6.53;3.53;;;;;;;17.98;73.48;101023.06;4917991;29;20464;-71
2023/06/27 05:57:46;;;;;;;4.87;3.03;;;;;;;17.93;73.21;101016.69;4913589;29;20717;-71
2023/06/27 06:00:16;;;;;;;12.20;3.87;;;;;;;18.05;72.73;101020.19;4919079;29;20520;-71
2023/06/27 06:02:47;;;;;;;11.70;4.53;;;;;;;18.23;72.62;101025.41;4915384;29;20435;-70
2023/06/27 06:05:17;;;;;;;7.83;3.50;;;;;;;18.39;71.59;101021.00;4914854;29;20444;-71
2023/06/27 06:07:46;;;;;;;16.53;3.80;;;;;;;18.21;71.30;101022.91;4917736;29;20815;-70
2023/06/27 06:10:17;;;;;;;8.73;3.10;;;;;;;17.92;72.59;101037.75;4916697;29;20516;-68
2023/06/27 06:12:46;;;;;;;10.30;4.17;;;;;;;18.29;72.74;101035.38;4916455;29;20851;-68
2023/06/27 06:18:17;;;;;;;3.83;3.10;;;;;;;18.54;69.95;101035.78;4930862;23;20517;-70
2023/06/27 06:20:46;;;;;;;9.77;4.10;;;;;;;18.63;69.46;101048.00;4843416;29;20469;-70
2023/06/27 06:23:15;;;;;;;19.13;4.10;;;;;;;18.49;70.47;101041.16;4841183;29;20411;-69
2023/06/27 06:25:46;;;;;;;5.00;3.00;;;;;;;18.60;69.55;101047.66;4841688;29;20532;-69
2023/06/27 06:28:15;;;;;;;4.13;3.43;;;;;;;18.54;68.92;101046.75;4836127;29;20504;-70
2023/06/27 06:31:11;;;;;;;6.47;3.10;;;;;;;18.13;70.89;101041.66;4832576;29;20438;-69
2023/06/27 06:33:41;;;;;;;5.73;3.20;;;;;;;18.72;70.88;101050.31;4838922;29;20493;-69
2023/06/27 06:36:10;;;;;;;4.80;3.13;;;;;;;18.76;68.77;101049.53;4829416;29;20523;-70
2023/06/27 06:38:39;;;;;;;5.83;2.67;;;;;;;18.25;68.90;101051.47;4835819;29;20429;-70
2023/06/27 06:41:09;;;;;;;9.90;2.37;;;;;;;18.04;70.43;101048.63;4824759;29;20448;-71
2023/06/27 06:43:39;;;;;;;7.17;3.00;;;;;;;18.64;69.05;101044.16;4838719;29;21015;-70
2023/06/27 06:46:09;;;;;;;7.60;3.73;;;;;;;18.76;67.69;101045.97;4830360;29;20521;-71
2023/06/27 06:48:38;;;;;;;11.80;3.93;;;;;;;19.13;66.01;101055.25;4828317;29;20494;-69
2023/06/27 06:51:08;;;;;;;7.43;2.90;;;;;;;19.19;66.38;101058.88;4827046;29;20461;-70
2023/06/27 06:53:37;;;;;;;6.90;3.07;;;;;;;19.32;65.62;101042.88;4834140;29;20934;-70
2023/06/27 06:56:58;;;;;;;13.20;3.37;;;;;;;19.37;64.87;101058.56;4831872;29;20438;-70
2023/06/27 06:59:29;;;;;;;7.60;3.03;;;;;;;18.98;66.76;101052.28;4838218;29;20551;-70
2023/06/27 07:01:58;;;;;;;9.20;2.93;;;;;;;18.73;65.76;101054.72;4825962;29;20434;-70
2023/06/27 07:04:26;;;;;;;8.40;3.80;;;;;;;18.62;66.85;101054.56;4830195;29;21006;-70
2023/06/27 07:06:56;;;;;;;11.40;2.50;;;;;;;18.36;67.79;101052.47;4830237;29;20466;-71
2023/06/27 07:09:25;;;;;;;3.70;2.13;;;;;;;18.31;68.91;101049.63;4827931;29;20444;-68
2023/06/27 07:11:54;;;;;;;4.73;2.30;;;;;;;18.78;66.75;101046.56;4832339;29;20865;-69
2023/06/27 07:14:23;;;;;;;9.97;3.20;;;;;;;19.12;65.01;101050.88;4833551;29;20435;-69
2023/06/27 07:16:55;;;;;;;22.23;2.73;;;;;;;19.56;63.65;101039.91;4828552;29;20887;-70
2023/06/27 07:19:24;;;;;;;8.27;2.43;;;;;;;19.81;62.67;101040.97;4831536;29;20535;-68
2023/06/27 07:21:53;;;;;;;4.43;3.37;;;;;;;19.89;61.40;101045.19;4830477;29;20452;-69
2023/06/27 07:24:21;;;;;;;5.30;2.97;;;;;;;19.53;62.51;101036.56;4824923;29;20981;-69
2023/06/27 07:26:51;;;;;;;8.07;2.87;;;;;;;19.48;63.15;101049.41;4825053;29;20853;-69
2023/06/27 07:29:21;;;;;;;15.90;3.60;;;;;;;19.45;63.20;101048.00;4830512;29;20503;-69
2023/06/27 07:31:50;;;;;;;6.40;2.37;;;;;;;19.84;61.54;101047.88;4825337;29;20811;-69
2023/06/27 07:34:21;;;;;;;9.60;3.73;;;;;;;19.87;62.04;101037.19;4825570;29;20438;-68
2023/06/27 07:36:50;;;;;;;5.10;2.73;;;;;;;20.15;60.84;101035.22;4825455;29;20482;-69
2023/06/27 07:39:19;;;;;;;9.37;3.07;;;;;;;20.21;60.67;101042.44;4835859;29;20449;-69
2023/06/27 07:41:53;;;;;;;5.13;2.27;;;;;;;19.72;60.28;101038.94;4825301;29;20987;-69
2023/06/27 07:44:26;;;;;;;10.00;2.20;;;;;;;20.07;58.71;101030.22;4829023;29;20444;-70
2023/06/27 07:46:55;;;;;;;18.43;3.70;;;;;;;19.98;58.65;101021.63;4826232;29;20455;-69
2023/06/27 07:49:25;;;;;;;8.57;2.50;;;;;;;20.00;59.44;101027.69;4825843;29;20515;-69
2023/06/27 07:51:54;;;;;;;6.07;2.50;;;;;;;20.05;60.10;101027.72;4831105;29;20461;-69
2023/06/27 07:54:26;;;;;;;5.00;2.27;;;;;;;19.84;61.33;101025.91;4818248;29;20436;-69
2023/06/27 07:56:56;;;;;;;4.27;2.20;;;;;;;19.42;62.55;101017.44;4828416;29;20989;-69
2023/06/27 07:59:25;;;;;;;3.80;2.10;;;;;;;19.27;62.14;101022.75;4830394;29;20777;-69
2023/06/27 08:01:57;;;;;;;5.23;2.10;;;;;;;19.38;61.17;101019.91;4827594;29;20777;-69
2023/06/27 08:04:28;;;;;;;2.40;1.13;;;;;;;19.09;58.83;101018.44;4830101;29;20550;-69
2023/06/27 08:06:57;;;;;;;6.33;2.10;;;;;;;19.38;59.06;101010.81;4831724;29;20453;-68
2023/06/27 08:09:26;;;;;;;7.57;1.83;;;;;;;19.65;57.96;101010.88;4824251;29;20965;-69
2023/06/27 08:11:55;;;;;;;7.23;2.27;;;;;;;19.67;57.18;101009.53;4824839;29;20534;-70
2023/06/27 08:14:24;;;;;;;5.00;2.23;;;;;;;19.81;57.00;101004.44;4829795;29;20442;-70
2023/06/27 08:16:53;;;;;;;7.67;2.00;;;;;;;20.16;56.04;101013.00;4828848;29;21007;-70
2023/06/27 08:19:22;;;;;;;2.90;1.60;;;;;;;20.28;55.46;101002.63;4829007;29;20438;-69
2023/06/27 08:21:52;;;;;;;6.60;2.20;;;;;;;20.75;53.30;100999.97;4826422;29;20506;-69
2023/06/27 08:24:21;;;;;;;6.03;1.73;;;;;;;20.33;54.38;101002.69;4827931;29;20516;-69
2023/06/27 08:26:55;;;;;;;4.57;3.47;;;;;;;20.56;54.11;101008.91;4825466;29;20466;-69
2023/06/27 08:29:25;;;;;;;6.53;2.23;;;;;;;20.58;53.29;101003.97;4830245;29;20526;-71
2023/06/27 08:31:58;;;;;;;4.20;1.83;;;;;;;20.90;53.02;100990.97;4828604;29;20778;-73
2023/06/27 08:34:31;;;;;;;5.57;1.43;;;;;;;20.28;54.05;100999.88;4824820;29;20445;-72
2023/06/27 08:37:02;;;;;;;3.43;1.90;;;;;;;19.92;56.06;100990.53;4814222;29;20472;-72
2023/06/27 08:39:31;;;;;;;6.73;2.00;;;;;;;20.01;55.56;100992.81;4825326;29;20844;-71
2023/06/27 08:42:01;;;;;;;3.00;1.70;;;;;;;20.44;54.30;101008.28;4829363;29;20428;-72
2023/06/27 08:44:30;;;;;;;7.23;3.37;;;;;;;21.00;53.78;100995.69;4825951;29;20950;-72
2023/06/27 08:47:03;;;;;;;2.50;1.97;;;;;;;20.88;53.42;100993.13;4827660;29;20454;-72
2023/06/27 08:49:35;;;;;;;6.97;2.03;;;;;;;20.72;53.59;100988.69;4824051;29;20506;-72
2023/06/27 08:52:09;;;;;;;3.20;1.63;;;;;;;20.66;52.90;100986.97;4824043;29;21022;-72
2023/06/27 08:54:44;;;;;;;6.13;2.20;;;;;;;20.74;53.94;100976.28;4828499;29;20438;-72
2023/06/27 08:57:14;;;;;;;3.43;2.30;;;;;;;20.45;54.47;100988.78;4825886;29;20436;-72
2023/06/27 08:59:47;;;;;;;4.87;2.00;;;;;;;20.77;51.92;100983.16;4825638;29;20963;-72
2023/06/27 09:02:17;;;;;;;2.73;1.93;;;;;;;21.31;51.83;100980.13;4823351;29;20461;-70
2023/06/27 09:04:47;;;;;;;5.13;2.47;;;;;;;21.20;51.39;100988.34;4822102;29;20773;-72
2023/06/27 09:07:46;;;;;;;6.50;2.57;;;;;;;20.74;51.74;100984.53;4828598;29;20470;-72
2023/06/27 09:10:16;;;;;;;3.03;1.80;;;;;;;20.01;53.89;100988.13;4819991;29;20446;-71
2023/06/27 09:12:47;;;;;;;10.20;2.00;;;;;;;19.67;55.98;100986.72;4828611;29;20420;-71
2023/06/27 09:15:16;;;;;;;4.77;2.57;;;;;;;19.39;60.28;100985.88;4820239;29;20460;-72
2023/06/27 09:17:45;;;;;;;3.97;2.23;;;;;;;19.02;59.32;101001.38;4825811;29;20492;-72
2023/06/27 09:20:18;;;;;;;5.77;1.50;;;;;;;18.46;61.17;101006.03;4832492;29;20437;-72
2023/06/27 09:22:50;;;;;;;2.20;1.50;;;;;;;18.33;59.82;100995.44;4832133;29;20423;-73
2023/06/27 09:25:20;;;;;;;3.00;1.53;;;;;;;18.16;61.18;100992.69;4827743;29;20860;-72
2023/06/27 09:27:49;;;;;;;3.67;1.90;;;;;;;18.27;63.50;100995.59;4829976;29;20538;-72
2023/06/27 09:30:23;;;;;;;3.73;1.80;;;;;;;18.31;63.92;100986.63;4836777;29;20437;-72
2023/06/27 09:32:56;;;;;;;2.37;1.60;;;;;;;18.08;64.93;100987.66;4830622;29;20419;-71
2023/06/27 09:35:26;;;;;;;5.10;1.67;;;;;;;18.13;64.93;100982.25;4826675;29;20444;-71
2023/06/27 09:38:19;;;;;;;3.90;2.00;;;;;;;18.96;63.29;100991.41;4827205;29;20474;-71
2023/06/27 09:41:03;;;;;;;6.23;1.73;;;;;;;19.09;62.55;100985.53;4833244;29;20524;-71
2023/06/27 09:43:35;;;;;;;5.37;2.30;;;;;;;19.38;60.12;100984.22;4832010;29;20471;-72
2023/06/27 09:46:06;;;;;;;4.30;2.03;;;;;;;19.49;57.89;100983.28;4834810;29;20500;-72
2023/06/27 09:48:37;;;;;;;7.70;1.70;;;;;;;19.89;56.93;100980.09;4826552;29;21359;-73
2023/06/27 09:51:08;;;;;;;6.13;2.53;;;;;;;20.25;56.09;100975.69;4839650;29;20441;-71
2023/06/27 09:53:39;;;;;;;3.50;1.70;;;;;;;20.45;55.41;100961.28;4834494;29;20495;-72
2023/06/27 09:56:08;;;;;;;7.20;2.33;;;;;;;20.76;54.43;100970.53;4828489;29;20433;-71
2023/06/27 09:58:37;;;;;;;4.30;1.80;;;;;;;21.21;52.80;100961.66;4827520;29;20473;-72
2023/06/27 10:01:06;;;;;;;5.40;2.43;;;;;;;21.63;52.87;100962.31;4830668;29;20431;-71
2023/06/27 10:03:36;;;;;;;2.47;1.53;;;;;;;22.49;50.28;100961.44;4826165;29;20950;-70
2023/06/27 10:06:06;;;;;;;2.70;1.70;;;;;;;22.43;50.17;100954.28;4828645;29;20441;-71
2023/06/27 10:08:42;;;;;;;5.13;2.10;;;;;;;22.04;50.51;100957.66;4833898;29;20440;-70
2023/06/27 10:11:11;;;;;;;3.10;1.73;;;;;;;22.20;48.98;100960.38;4823317;29;20470;-70
2023/06/27 10:13:42;;;;;;;3.53;1.67;;;;;;;22.02;50.01;100943.34;4826991;29;20411;-71
2023/06/27 10:16:12;;;;;;;3.73;1.90;;;;;;;22.14;49.67;100944.94;4819783;29;20417;-71
2023/06/27 10:18:42;;;;;;;6.87;1.83;;;;;;;22.84;49.67;100939.28;4830284;29;20472;-70
2023/06/27 10:21:12;;;;;;;5.77;1.53;;;;;;;22.88;48.45;100940.38;4833351;29;20445;-72
2023/06/27 10:23:46;;;;;;;2.93;1.57;;;;;;;23.00;48.01;100933.69;4830968;29;20463;-70
2023/06/27 10:26:20;;;;;;;3.87;2.33;;;;;;;23.13;46.04;100930.31;4824362;29;20443;-72
2023/06/27 10:28:51;;;;;;;4.33;2.10;;;;;;;22.74;47.33;100933.81;4825918;29;20471;-71
2023/06/27 10:31:42;;;;;;;5.80;2.30;;;;;;;21.61;51.33;100933.38;4828412;29;20446;-71
2023/06/27 10:34:17;;;;;;;3.10;2.00;;;;;;;21.56;50.82;100944.38;4823417;29;20423;-72
2023/06/27 10:37:02;;;;;;;5.50;1.70;;;;;;;21.01;51.82;100947.81;4820789;29;21247;-70
2023/06/27 10:39:33;;;;;;;3.80;2.50;;;;;;;19.99;60.57;100984.00;4824039;29;20928;-71
2023/06/27 10:42:04;;;;;;;4.20;1.93;;;;;;;18.30;69.28;100986.91;4820622;29;20457;-71
2023/06/27 10:44:50;;;;;;;3.03;1.57;;;;;;;16.87;76.24;100993.53;4819711;29;20993;-71
2023/06/27 10:47:34;;;;;;;4.60;2.70;;;;;;;16.54;80.94;101005.09;4824723;29;20462;-72
2023/06/27 10:50:10;;;;;;;5.17;2.67;;;;;;;16.50;82.92;100995.72;4820305;29;20532;-73
2023/06/27 10:53:00;;;;;;;3.30;2.23;;;;;;;16.83;83.10;101009.59;4830319;29;20430;-72
2023/06/27 10:55:32;;;;;;;2.57;2.27;;;;;;;16.91;77.25;100989.25;4822661;29;20475;-70
2023/06/27 10:58:06;;;;;;;3.67;1.60;;;;;;;17.26;79.45;100986.41;4821746;29;20428;-72
2023/06/27 11:00:37;;;;;;;2.80;1.93;;;;;;;17.50;78.10;100979.75;4820179;29;20524;-71
2023/06/27 11:03:07;;;;;;;2.67;1.70;;;;;;;17.85;79.87;100984.25;4819068;29;20476;-71
2023/06/27 11:05:46;;;;;;;3.17;1.60;;;;;;;18.26;76.37;100972.84;4819033;29;20469;-70
2023/06/27 11:08:17;;;;;;;2.17;1.47;;;;;;;18.96;73.07;100974.97;4820386;29;20450;-70
2023/06/27 11:11:04;;;;;;;2.03;0.90;;;;;;;19.12;68.52;100973.22;4823379;29;20518;-70
2023/06/27 11:13:36;;;;;;;1.70;1.30;;;;;;;19.31;67.04;100972.63;4823964;29;20446;-71
2023/06/27 11:16:06;;;;;;;2.43;1.30;;;;;;;19.71;67.94;100971.38;4823366;29;20905;-70
2023/06/27 11:18:37;;;;;;;2.90;1.37;;;;;;;20.19;65.84;100978.66;4821372;29;20825;-70
2023/06/27 11:21:06;;;;;;;5.73;2.07;;;;;;;20.34;67.11;100976.88;4831562;29;20539;-70
2023/06/27 11:23:35;;;;;;;2.07;1.40;;;;;;;20.71;64.04;100970.50;4825604;29;20417;-71
2023/06/27 11:26:07;;;;;;;3.97;1.97;;;;;;;20.77;62.97;100967.50;4828390;29;20834;-71
2023/06/27 11:28:36;;;;;;;2.90;1.57;;;;;;;20.77;62.16;100958.41;4833871;29;20944;-69
2023/06/27 11:31:06;;;;;;;3.50;1.73;;;;;;;21.03;63.76;100954.69;4822556;29;20438;-69
2023/06/27 11:33:35;;;;;;;3.40;1.37;;;;;;;21.24;60.88;100958.38;4821650;29;20805;-69
2023/06/27 11:36:04;;;;;;;4.77;1.80;;;;;;;21.21;59.59;100954.22;4826555;29;20427;-69
2023/06/27 11:38:33;;;;;;;3.43;1.90;;;;;;;21.36;59.56;100944.34;4828394;29;20447;-69
2023/06/27 11:41:08;;;;;;;5.00;2.00;;;;;;;21.75;62.40;100941.91;4826982;29;20449;-70
2023/06/27 11:43:37;;;;;;;3.77;1.93;;;;;;;22.18;59.24;100929.50;4828416;29;20499;-70
2023/06/27 11:46:06;;;;;;;4.30;2.13;;;;;;;22.57;57.31;100926.94;4815680;29;20488;-71